Auxerre, France

5:22 PM CET on January 29, 2015 (GMT +0100)
Auxerre | Change Station
CLOSE
Current Station
Personal Weather Station
Location: Lordonnois, BOURGOGNE
Elevation: 541 ft
Nearby Weather Stations

Elev 541 ft 47.94 °N, 3.73 °E | Updated 6 seconds ago

Light Rain
Light Rain
39.6 °F
Feels Like 37 °F
N
3.8
Wind Variable Wind from WSW
Gusts 3.8 mph

Today
High -- | Low -- °F
--% Chance of Precip.
Yesterday
High -- | Low -- °F
Precip. -- in
8:17 AM 5:41 PM
Waxing Gibbous, 75% visible
Pressure 29.06 in
Visibility 6.2 miles
Clouds Mostly Cloudy 1400 ft
Overcast 3600 ft
Windchill 37 °F
Dew Point 39 °F
Humidity 98%
Rainfall 0.17 in
Snow Depth Not available.
UV 0 out of 12
Pollen Not available.
Air Quality Not available.
Flu Activity Not available.
METAR LFQB 291600Z AUTO 20014KT 9999 -RA BKN014 OVC036 04/03 Q0984

More Conditions Fewer Conditions

Pressure 29.06 in
Visibility 6.2 miles
Clouds Mostly Cloudy 1400 ft
Overcast 3600 ft
Windchill 37 °F
Dew Point 39 °F
Humidity 98%
Rainfall 0.17 in
Snow Depth Not available.
UV 0 out of 12
Pollen Not available.
Air Quality Not available.
Flu Activity Not available.
METAR LFQB 291600Z AUTO 20014KT 9999 -RA BKN014 OVC036 04/03 Q0984

More Conditions Fewer Conditions

10-Day Weather Forecast

Almanac

Astronomy

Jan. 29, 2015 Rise Set
Actual Time
Civil Twilight
Nautical Twilight
Astronomical Twilight
Moon
Length of Visible Light
Length of Day
Tomorrow will be .
, % of the Moon is Illuminated

Today's Extremes

Country Highs Country Lows

Community

WunderPhotos

Upload Photos

1,791,466 photos uploaded!

WunderBlogs® & News

Nearby

Air Quality

  Air Quality AQ Index Pollutant
Not available.

Snow Depth

Station Depth Elevation

Earthquake Activity

City Distance Mag. Time & Date
Minimum magnitude displayed is 2.5.

Coastal Water Temperatures

Place Temperature

Nearby Weather Stations